Flight Track Log - Related Links

Times and Time Zones

All times are in EDT time to prevent confusion due to time zone crossing. See the EJM53 flight status page for this flight to view local times or setup timezone preferences in your user account.


Time Position Orientation Groundspeed Altitude Reporting Facility
EDT Latitude Longitude Course Direction KTS MPH feet Rate Location/Type
Thu 07:20:19 AM 42.4667 -71.3167 251° West 288 331 1,000  Level KA90
Thu 07:21:13 AM 42.4500 -71.3833 251° West 221 254 2,400 1,760 Climbing KA90
Thu 07:22:49 AM 42.3858 -71.4789 228° Southwest 247 284 5,400 2,392 Climbing Boston Center
Thu 07:23:46 AM 42.3408 -71.5694 236° Southwest 258 297 8,500 2,949 Climbing Boston Center
Thu 07:24:47 AM 42.3414 -71.6536 271° West 253 291 11,200 2,508 Climbing Boston Center
Thu 07:25:48 AM 42.3442 -71.7744 272° West 286 329 13,600 1,426 Climbing Boston Center
Thu 07:26:49 AM 42.3197 -71.8672 250° West 295 339 14,100 694 Climbing Boston Center
Thu 07:27:49 AM 42.2661 -71.9800 237° Southwest 301 346 15,000 458 Climbing Boston Center
Thu 07:28:47 AM 42.2164 -72.0897 239° Southwest 336 387 15,000 153 Level Boston Center
Thu 07:29:47 AM 42.1689 -72.1936 238° Southwest 346 398 15,300 496 Climbing Boston Center
Thu 07:30:48 AM 42.1211 -72.3031 240° Southwest 339 390 16,000 344 Climbing Boston Center
Thu 07:31:49 AM 42.0711 -72.4122 238° Southwest 339 390 16,000  Level Boston Center
Thu 07:32:46 AM 42.0211 -72.5183 238° Southwest 339 390 16,000  Level Boston Center
Thu 07:33:47 AM 41.9772 -72.6133 238° Southwest 339 390 16,000  Level Boston Center
Thu 07:34:49 AM 41.9228 -72.7386 240° Southwest 344 396 16,000  Level Boston Center
Thu 07:35:47 AM 41.8744 -72.8500 240° Southwest 344 396 16,000 -202 Level Boston Center
Thu 07:36:48 AM 41.8325 -72.9472 240° Southwest 344 396 15,600 -545 Descending Boston Center
Thu 07:37:48 AM 41.7881 -73.0608 242° Southwest 324 373 14,900 -645 Descending Boston Center
Thu 07:38:49 AM 41.7478 -73.1553 240° Southwest 324 373 14,300 -454 Descending Boston Center
Thu 07:39:47 AM 41.7014 -73.2658 241° Southwest 324 373 14,000 -150 Descending Boston Center
Thu 07:40:49 AM 41.6567 -73.3681 240° Southwest 324 373 14,000  Level Boston Center
Thu 07:41:49 AM 41.6164 -73.4592 239° Southwest 319 367 14,000 -101 Level Boston Center
Thu 07:42:48 AM 41.5633 -73.5525 233° Southwest 313 360 13,800 -1,045 Descending Boston Center
Thu 07:44:24 AM 41.4667 -73.6667 222° Southwest 283 326 11,300 -1,538 Descending New York TRACON
Thu 07:45:24 AM 41.4000 -73.7333 217° Southwest 278 320 9,800 -1,421 Descending New York TRACON
Thu 07:46:18 AM 41.3500 -73.7833 217° Southwest 283 326 8,600 -1,389 Descending New York TRACON
Thu 07:47:12 AM 41.2833 -73.7500 159° South 288 331 7,300 -1,368 Descending New York TRACON
Thu 07:48:12 AM 41.2167 -73.6833 143° Southeast 281 323 6,000 -650 Descending New York TRACON
Thu 07:49:12 AM 41.1500 -73.6333 151° Southeast 279 321 6,000 -158 Level New York TRACON
Thu 07:50:06 AM 41.0833 -73.6333 180° South 274 315 5,700 -842 Descending New York TRACON
Thu 07:51:06 AM 41.0167 -73.6667 201° Southwest 263 303 4,400 -1,211 Descending New York TRACON
Thu 07:52:00 AM 40.9667 -73.7167 217° Southwest 257 296 3,400 -789 Descending New York TRACON
Thu 07:53:00 AM 40.9167 -73.7667 217° Southwest 202 232 2,900 -700 Descending New York TRACON
Thu 07:54:00 AM 40.8667 -73.8000 207° Southwest 147 169 2,000 -800 Descending New York TRACON
Thu 07:55:00 AM 40.8333 -73.8167 201° Southwest 142 163 1,300 -650 Descending New York TRACON
Thu 07:56:00 AM 40.8167 -73.8500 237° Southwest 133 153 700 -600 Descending New York TRACON

Login

Don't have an account? Register now (free) for customized features, flight alerts, and more!